createdAt,value
2024-03-14T00:03:56.493Z,5.37
2024-03-14T00:08:02.049Z,5.73
2024-03-14T00:12:04.218Z,5.17
2024-03-14T00:16:07.360Z,6.30
2024-03-14T00:20:13.256Z,6.20
2024-03-14T00:24:15.923Z,7.43
2024-03-14T00:28:19.512Z,7.77
2024-03-14T00:32:21.745Z,7.03
2024-03-14T00:36:23.785Z,7.00
2024-03-14T00:40:26.028Z,7.93
2024-03-14T00:44:28.298Z,7.50
2024-03-14T00:48:30.250Z,6.93
2024-03-14T00:52:32.633Z,8.57
2024-03-14T00:56:34.578Z,8.30
2024-03-14T01:00:36.734Z,8.57
2024-03-14T01:04:39.549Z,7.20
2024-03-14T01:08:42.141Z,6.50
2024-03-14T01:12:44.372Z,6.80
2024-03-14T01:16:46.329Z,5.53
2024-03-14T01:20:50.041Z,5.23
2024-03-14T01:24:52.241Z,5.33
2024-03-14T01:28:54.187Z,6.80
2024-03-14T01:32:56.509Z,7.20
2024-03-14T01:37:26.480Z,7.43
2024-03-14T01:41:28.453Z,7.23
2024-03-14T01:45:31.645Z,6.30
2024-03-14T01:49:34.307Z,7.43
2024-03-14T01:53:37.424Z,8.00
2024-03-14T01:57:40.489Z,8.30
2024-03-14T02:01:42.547Z,8.87
2024-03-14T02:05:53.750Z,9.80
2024-03-14T02:09:55.668Z,9.70
2024-03-14T02:13:58.367Z,8.57
2024-03-14T02:18:00.491Z,8.20
2024-03-14T02:22:03.243Z,9.67
2024-03-14T02:26:07.936Z,9.30
2024-03-14T02:30:10.375Z,10.87
2024-03-14T02:34:12.489Z,9.73
2024-03-14T02:38:15.519Z,9.93
2024-03-14T02:42:17.418Z,9.80
2024-03-14T02:46:19.456Z,9.83
2024-03-14T02:50:21.428Z,10.20
2024-03-14T02:54:23.363Z,9.70
2024-03-14T02:58:25.722Z,9.80
2024-03-14T03:02:27.872Z,9.70
2024-03-14T03:06:30.056Z,9.70
2024-03-14T03:10:32.073Z,10.93
2024-03-14T03:14:33.990Z,10.80
2024-03-14T03:18:35.982Z,10.70
2024-03-14T03:22:59.573Z,10.67
2024-03-14T03:27:14.695Z,10.43
2024-03-14T03:31:16.852Z,11.30
2024-03-14T03:35:24.257Z,9.83
2024-03-14T03:39:28.546Z,9.67
2024-03-14T03:43:30.707Z,10.03
2024-03-14T03:47:32.688Z,9.73
2024-03-14T03:51:34.757Z,9.83
2024-03-14T03:55:36.689Z,10.23
2024-03-14T03:59:38.869Z,9.63
2024-03-14T04:03:41.856Z,10.17
2024-03-14T04:07:45.214Z,7.93
2024-03-14T04:11:47.185Z,8.13
2024-03-14T04:15:49.233Z,6.97
2024-03-14T04:19:51.847Z,7.20
2024-03-14T04:23:54.526Z,7.73
2024-03-14T04:27:58.045Z,6.90
2024-03-14T04:31:59.994Z,7.00
2024-03-14T04:36:04.630Z,7.57
2024-03-14T04:40:14.041Z,7.50
2024-03-14T04:44:16.008Z,10.10
2024-03-14T04:48:18.030Z,9.60
2024-03-14T04:52:20.549Z,8.50
2024-03-14T04:56:22.946Z,7.70
2024-03-14T05:00:27.055Z,7.53
2024-03-14T05:04:29.370Z,7.77
2024-03-14T05:08:31.403Z,9.13
2024-03-14T05:12:33.407Z,7.50
2024-03-14T05:16:35.458Z,7.50
2024-03-14T05:20:37.948Z,7.20
2024-03-14T05:24:40.023Z,7.43
2024-03-14T05:28:42.885Z,7.03
2024-03-14T05:32:49.045Z,7.07
2024-03-14T05:36:51.261Z,6.30
2024-03-14T05:40:53.787Z,6.77
2024-03-14T05:44:57.275Z,6.27
2024-03-14T05:48:59.698Z,6.73
2024-03-14T05:53:01.791Z,6.20
2024-03-14T05:57:04.523Z,5.90
2024-03-14T06:01:08.393Z,6.17
2024-03-14T06:05:11.110Z,5.83
2024-03-14T06:09:16.308Z,5.70
2024-03-14T06:13:18.899Z,5.43
2024-03-14T06:17:20.814Z,5.00
2024-03-14T06:21:23.282Z,5.43
2024-03-14T06:25:25.390Z,10.93
2024-03-14T06:29:27.513Z,15.33
2024-03-14T06:33:29.661Z,10.00
2024-03-14T06:37:31.927Z,12.33
2024-03-14T06:41:34.308Z,9.10
2024-03-14T06:45:36.469Z,8.87
2024-03-14T06:49:39.310Z,9.33
2024-03-14T06:53:41.178Z,9.37
2024-03-14T06:57:46.718Z,9.37
2024-03-14T07:01:49.899Z,9.53
2024-03-14T07:05:59.140Z,10.27
2024-03-14T07:10:01.193Z,9.70
2024-03-14T07:14:03.347Z,10.33
2024-03-14T07:18:06.596Z,10.67
2024-03-14T07:22:10.945Z,12.27
2024-03-14T07:26:14.601Z,11.33
2024-03-14T07:30:17.079Z,13.57
2024-03-14T07:34:19.786Z,14.07
2024-03-14T07:38:28.940Z,13.47
2024-03-14T07:42:32.309Z,13.70
2024-03-14T07:46:35.351Z,15.00
2024-03-14T07:50:37.630Z,17.50
2024-03-14T07:54:41.116Z,15.10
2024-03-14T07:58:47.776Z,15.07
2024-03-14T08:02:56.767Z,16.10
2024-03-14T08:07:00.782Z,15.67
2024-03-14T08:11:04.521Z,15.90
2024-03-14T08:15:17.723Z,15.97
2024-03-14T08:19:20.230Z,16.50
2024-03-14T08:23:22.582Z,15.63
2024-03-14T08:27:26.092Z,16.97
2024-03-14T08:31:29.025Z,17.23
2024-03-14T08:35:31.612Z,19.77
2024-03-14T08:39:33.616Z,17.52
2024-03-14T08:43:36.446Z,17.58
2024-03-14T08:47:38.720Z,16.98
2024-03-14T08:51:40.673Z,16.08
2024-03-14T08:55:58.164Z,15.37
2024-03-14T09:00:00.201Z,15.83
2024-03-14T09:04:02.354Z,14.90
2024-03-14T09:08:05.366Z,16.38
2024-03-14T09:12:17.825Z,18.92
2024-03-14T09:16:20.816Z,20.63
2024-03-14T09:20:22.885Z,22.48
2024-03-14T09:24:24.864Z,21.57
2024-03-14T09:28:28.030Z,22.48
2024-03-14T09:32:31.456Z,22.07
2024-03-14T09:36:33.590Z,21.77
2024-03-14T09:40:35.465Z,20.87
2024-03-14T09:44:37.500Z,20.17
2024-03-14T09:48:39.828Z,20.10
2024-03-14T09:52:41.767Z,20.63
2024-03-14T09:56:44.704Z,20.10
2024-03-14T10:00:46.929Z,20.15
2024-03-14T10:04:50.831Z,16.83
2024-03-14T10:08:53.027Z,18.13
2024-03-14T10:12:55.918Z,17.23
2024-03-14T10:16:59.405Z,16.50
2024-03-14T10:21:07.341Z,17.13
2024-03-14T10:25:25.277Z,17.50
2024-03-14T10:29:34.164Z,15.80
2024-03-14T10:33:38.945Z,13.93
2024-03-14T10:37:42.886Z,14.20
2024-03-14T10:41:48.922Z,14.13
2024-03-14T10:45:54.270Z,13.70
2024-03-14T10:49:57.583Z,13.70
2024-03-14T10:54:00.848Z,11.82
2024-03-14T10:58:06.798Z,9.95
2024-03-14T11:02:15.190Z,10.85
2024-03-14T11:06:21.790Z,11.68
2024-03-14T11:10:33.214Z,10.63
2024-03-14T11:14:40.035Z,11.50
2024-03-14T11:18:54.784Z,10.45
2024-03-14T11:22:58.148Z,9.30
2024-03-14T11:27:02.933Z,8.85
2024-03-14T11:31:05.067Z,8.43
2024-03-14T11:35:29.769Z,7.43
2024-03-14T11:39:37.464Z,8.15
2024-03-14T11:43:40.246Z,7.35
2024-03-14T11:47:43.487Z,6.55
2024-03-14T11:51:49.385Z,6.93
2024-03-14T11:55:58.725Z,6.40
2024-03-14T12:00:10.858Z,6.85
2024-03-14T12:04:14.706Z,6.78
2024-03-14T12:08:17.065Z,6.88
2024-03-14T12:12:20.825Z,5.97
2024-03-14T12:16:23.559Z,5.25
2024-03-14T12:20:27.189Z,5.13
2024-03-14T12:24:29.607Z,5.13
2024-03-14T12:28:33.788Z,4.18
2024-03-14T12:32:35.974Z,4.47
2024-03-14T12:36:38.056Z,5.15
2024-03-14T12:40:41.004Z,5.40
2024-03-14T12:44:44.139Z,4.80
2024-03-14T12:48:47.608Z,5.40
2024-03-14T12:53:05.406Z,4.95
2024-03-14T12:57:11.663Z,5.05
2024-03-14T13:01:14.024Z,5.30
2024-03-14T13:05:16.717Z,4.95
2024-03-14T13:09:23.234Z,4.82
2024-03-14T13:13:25.582Z,5.60
2024-03-14T13:17:28.789Z,5.38
2024-03-14T13:21:46.738Z,4.45
2024-03-14T13:25:49.358Z,4.32
2024-03-14T13:29:51.373Z,4.50
2024-03-14T13:33:53.619Z,4.60
2024-03-14T13:37:58.521Z,4.18
2024-03-14T13:42:01.214Z,4.18
2024-03-14T13:46:03.289Z,4.15
2024-03-14T13:50:10.826Z,4.60
2024-03-14T13:54:19.157Z,4.60
2024-03-14T13:58:24.395Z,4.22
2024-03-14T14:02:26.361Z,4.15
2024-03-14T14:06:29.000Z,4.82
2024-03-14T14:10:30.957Z,4.13
2024-03-14T14:14:33.833Z,4.32
2024-03-14T14:18:36.012Z,4.13
2024-03-14T14:22:38.085Z,4.18
2024-03-14T14:27:00.420Z,4.03
2024-03-14T14:31:09.290Z,4.13
2024-03-14T14:35:14.154Z,5.05
2024-03-14T14:39:19.886Z,4.47
2024-03-14T14:43:22.417Z,3.67
2024-03-14T14:47:25.196Z,3.83
2024-03-14T14:51:27.465Z,4.05
2024-03-14T14:55:30.147Z,3.30
2024-03-14T14:59:33.120Z,3.45
2024-03-14T15:03:35.309Z,3.00
2024-03-14T15:07:39.692Z,3.05
2024-03-14T15:11:42.348Z,2.95
2024-03-14T15:15:49.624Z,3.17
2024-03-14T15:19:54.763Z,3.50
2024-03-14T15:23:57.906Z,3.85
2024-03-14T15:27:59.897Z,3.53
2024-03-14T15:32:05.305Z,3.17
2024-03-14T15:36:07.800Z,3.15
2024-03-14T15:40:15.362Z,3.03
2024-03-14T15:44:18.054Z,3.40
2024-03-14T15:48:22.533Z,2.55
2024-03-14T15:52:27.714Z,2.95
2024-03-14T15:56:30.042Z,2.70
2024-03-14T16:00:32.449Z,3.17
2024-03-14T16:04:34.487Z,3.80
2024-03-14T16:08:48.775Z,3.55
2024-03-14T16:12:57.291Z,3.28
2024-03-14T16:17:00.005Z,6.47
2024-03-14T16:21:02.404Z,3.13
2024-03-14T16:25:05.913Z,7.00
2024-03-14T16:29:10.745Z,5.80
2024-03-14T16:33:13.618Z,5.75
2024-03-14T16:37:16.106Z,5.38
2024-03-14T16:41:20.707Z,4.22
2024-03-14T16:45:23.958Z,3.08
2024-03-14T16:49:26.128Z,4.30
2024-03-14T16:53:29.650Z,4.20
2024-03-14T16:57:32.231Z,3.28
2024-03-14T17:01:36.943Z,2.90
2024-03-14T17:05:40.090Z,4.78
2024-03-14T17:09:43.578Z,4.63
2024-03-14T17:13:45.863Z,5.35
2024-03-14T17:17:48.220Z,3.83
2024-03-14T17:21:51.251Z,3.53
2024-03-14T17:25:53.314Z,7.28
2024-03-14T17:29:56.310Z,5.47
2024-03-14T17:33:58.852Z,8.95
2024-03-14T17:38:00.927Z,7.05
2024-03-14T17:42:03.213Z,4.10
2024-03-14T17:46:08.077Z,4.68
2024-03-14T17:50:12.405Z,4.32
2024-03-14T17:54:14.755Z,4.60
2024-03-14T17:58:16.963Z,5.28
2024-03-14T18:02:19.157Z,20.45
2024-03-14T18:06:21.482Z,17.17
2024-03-14T18:10:24.504Z,13.35
2024-03-14T18:14:26.860Z,23.80
2024-03-14T18:18:30.916Z,6.60
2024-03-14T18:22:33.404Z,6.97
2024-03-14T18:26:36.314Z,5.30
2024-03-14T18:30:38.518Z,2.70
2024-03-14T18:34:41.977Z,3.65
2024-03-14T18:38:44.102Z,15.13
2024-03-14T18:42:46.241Z,21.35
2024-03-14T18:46:48.655Z,18.57
2024-03-14T18:50:50.954Z,12.07
2024-03-14T18:54:52.976Z,5.50
2024-03-14T18:58:55.317Z,5.15
2024-03-14T19:03:01.631Z,5.97
2024-03-14T19:07:05.480Z,9.00
2024-03-14T19:11:07.607Z,9.50
2024-03-14T19:15:12.749Z,11.93
2024-03-14T19:19:15.315Z,5.50
2024-03-14T19:23:18.828Z,2.60
2024-03-14T19:27:21.339Z,2.17
2024-03-14T19:31:23.742Z,2.30
2024-03-14T19:35:26.560Z,1.93
2024-03-14T19:39:30.549Z,2.63
2024-03-14T19:43:32.729Z,3.20
2024-03-14T19:47:35.724Z,3.47
2024-03-14T19:51:38.135Z,3.80
2024-03-14T19:55:40.244Z,4.47
2024-03-14T19:59:43.017Z,6.15
2024-03-14T20:03:47.497Z,6.20
2024-03-14T20:07:50.430Z,7.32
2024-03-14T20:11:55.148Z,3.47
2024-03-14T20:15:59.438Z,2.50
2024-03-14T20:20:11.952Z,2.47
2024-03-14T20:24:14.704Z,3.00
2024-03-14T20:28:17.034Z,2.47
2024-03-14T20:32:22.330Z,2.33
2024-03-14T20:36:24.830Z,1.80
2024-03-14T20:40:35.320Z,2.13
2024-03-14T20:44:38.223Z,2.50
2024-03-14T20:48:40.438Z,3.67
2024-03-14T20:52:43.762Z,3.70
2024-03-14T20:56:51.803Z,3.20
2024-03-14T21:00:53.935Z,3.60
2024-03-14T21:04:57.091Z,3.10
2024-03-14T21:09:00.037Z,3.67
2024-03-14T21:13:05.482Z,4.10
2024-03-14T21:17:10.168Z,9.23
2024-03-14T21:21:12.245Z,5.27
2024-03-14T21:25:14.505Z,11.10
2024-03-14T21:29:16.826Z,7.47
2024-03-14T21:33:19.577Z,2.87
2024-03-14T21:37:22.289Z,3.70
2024-03-14T21:41:26.949Z,4.57
2024-03-14T21:45:29.891Z,6.20
2024-03-14T21:49:32.324Z,3.70
2024-03-14T21:53:34.190Z,2.17
2024-03-14T21:57:37.184Z,4.03
2024-03-14T22:01:42.588Z,4.57
2024-03-14T22:05:44.720Z,4.83
2024-03-14T22:09:47.158Z,4.73
2024-03-14T22:13:49.397Z,3.13
2024-03-14T22:17:51.873Z,3.57
2024-03-14T22:21:54.013Z,5.27
2024-03-14T22:25:56.150Z,3.27
2024-03-14T22:29:58.351Z,3.33
2024-03-14T22:34:00.423Z,3.10
2024-03-14T22:38:02.913Z,3.17
2024-03-14T22:42:06.211Z,3.43
2024-03-14T22:46:09.863Z,3.00
2024-03-14T22:50:12.643Z,3.50
2024-03-14T22:54:14.626Z,3.67
2024-03-14T22:58:17.414Z,2.70
2024-03-14T23:02:21.776Z,2.43
2024-03-14T23:06:25.034Z,3.00
2024-03-14T23:10:27.611Z,2.30
2024-03-14T23:14:30.864Z,1.80
2024-03-14T23:18:33.098Z,2.07
2024-03-14T23:22:35.551Z,2.33
2024-03-14T23:26:38.684Z,2.30
2024-03-14T23:30:41.837Z,2.10
2024-03-14T23:34:44.641Z,2.60
2024-03-14T23:38:46.473Z,2.50
2024-03-14T23:42:48.624Z,2.30
2024-03-14T23:46:50.708Z,2.10
2024-03-14T23:50:55.053Z,2.30
2024-03-14T23:54:59.118Z,2.10
2024-03-14T23:59:01.652Z,2.60
